Time;durP1;ratioP1;P1;durP2;ratioP2;P2;SDS_P1;SDS_P2;PMS_P1;PMS_P2;Temp;Humidity;BMP_temperature;BMP_pressure;BME280_temperature;BME280_humidity;BME280_pressure;Samples;Min_cycle;Max_cycle;Signal;HPM_P1;HPM_P2
2023/09/03 00:01:45;;;;;;;19.63;11.35;;;;;;;22.93;75.60;100493.63;5105463;28;20032;-30
2023/09/03 00:04:10;;;;;;;16.92;9.45;;;;;;;22.97;75.45;100497.38;5105661;28;20040;-30
2023/09/03 00:06:36;;;;;;;15.63;8.45;;;;;;;23.01;75.27;100497.59;5105418;28;20024;-31
2023/09/03 00:09:25;;;;;;;13.68;8.35;;;;;;;23.31;74.27;100495.59;5105413;28;20038;-31
2023/09/03 00:11:50;;;;;;;12.00;6.35;;;;;;;23.11;74.09;100491.22;5105401;28;20035;-32
2023/09/03 00:14:15;;;;;;;10.60;6.20;;;;;;;23.04;74.56;100497.84;5105477;28;20106;-29
2023/09/03 00:16:41;;;;;;;12.27;6.43;;;;;;;22.92;74.71;100488.47;5105096;28;20034;-31
2023/09/03 00:19:06;;;;;;;13.52;7.75;;;;;;;23.18;73.60;100497.13;5105127;28;20035;-31
2023/09/03 00:21:32;;;;;;;10.85;5.90;;;;;;;22.78;75.73;100494.63;5105384;28;20046;-31
2023/09/03 00:23:57;;;;;;;14.98;5.90;;;;;;;22.36;79.04;100496.16;5105019;28;20475;-29
2023/09/03 00:26:26;;;;;;;16.67;7.60;;;;;;;21.98;79.22;100495.91;5105323;28;20415;-30
2023/09/03 00:29:08;;;;;;;11.70;6.75;;;;;;;22.23;77.80;100494.06;5105282;28;20051;-29
2023/09/03 00:31:33;;;;;;;9.88;5.72;;;;;;;22.20;78.58;100497.38;5105525;28;20027;-30
2023/09/03 00:33:59;;;;;;;11.60;5.57;;;;;;;22.05;80.12;100487.47;5104970;28;20031;-29
2023/09/03 00:36:24;;;;;;;8.90;5.20;;;;;;;21.97;80.80;100491.59;5105502;28;20708;-31
2023/09/03 00:38:49;;;;;;;9.00;5.20;;;;;;;22.01;80.86;100489.94;5105351;28;20178;-30
2023/09/03 00:41:15;;;;;;;8.82;5.40;;;;;;;21.71;82.01;100482.03;5104896;28;20024;-31
2023/09/03 00:44:02;;;;;;;6.97;4.90;;;;;;;21.51;83.31;100481.06;5105466;28;20046;-29
2023/09/03 00:46:28;;;;;;;9.68;5.82;;;;;;;21.44;83.95;100472.44;5105150;28;20038;-29
2023/09/03 00:48:53;;;;;;;8.55;5.50;;;;;;;21.25;84.77;100470.38;5105120;28;20024;-30
2023/09/03 00:51:19;;;;;;;8.75;5.75;;;;;;;21.02;86.90;100474.56;5104764;28;20085;-30
2023/09/03 00:53:53;;;;;;;13.15;7.18;;;;;;;20.80;86.49;100483.06;5105091;28;20031;-30
2023/09/03 00:56:19;;;;;;;15.38;8.25;;;;;;;21.04;84.69;100485.94;5104634;28;20023;-29
2023/09/03 00:58:46;;;;;;;13.70;7.22;;;;;;;21.36;82.23;100486.56;5104953;28;20016;-33
2023/09/03 01:01:15;;;;;;;14.35;8.07;;;;;;;21.40;81.71;100477.59;5104793;28;20039;-32
2023/09/03 01:03:42;;;;;;;12.82;7.07;;;;;;;21.40;81.29;100482.22;5104986;28;20051;-30
2023/09/03 01:06:34;;;;;;;13.25;7.10;;;;;;;20.78;84.46;100487.94;5104976;28;20088;-32
2023/09/03 01:08:59;;;;;;;10.93;5.95;;;;;;;20.99;82.69;100482.44;5105093;28;20023;-29
2023/09/03 01:11:31;;;;;;;11.93;6.40;;;;;;;21.40;80.76;100482.22;5107581;28;20019;-29
2023/09/03 01:14:02;;;;;;;10.95;6.25;;;;;;;21.07;82.51;100474.53;5108478;28;20495;-30
2023/09/03 01:17:09;;;;;;;11.73;6.65;;;;;;;21.32;81.37;100467.34;5108605;28;20027;-31
2023/09/03 01:20:00;;;;;;;10.40;6.63;;;;;;;21.59;81.54;100487.81;5107772;28;20023;-31
2023/09/03 01:22:37;;;;;;;13.82;6.32;;;;;;;21.29;83.05;100481.47;5108372;28;20051;-29
2023/09/03 01:25:18;;;;;;;10.00;5.97;;;;;;;21.36;82.96;100476.53;5107748;28;20032;-30
2023/09/03 01:28:23;;;;;;;9.68;6.40;;;;;;;21.56;81.59;100483.75;5107958;28;20706;-29
2023/09/03 01:30:51;;;;;;;10.55;5.78;;;;;;;21.20;82.04;100483.94;5108256;28;20026;-32
2023/09/03 01:33:46;;;;;;;10.25;6.00;;;;;;;21.29;81.22;100476.03;5108186;28;20032;-33
2023/09/03 01:36:13;;;;;;;12.95;6.28;;;;;;;21.06;81.95;100477.50;5098387;28;20035;-29
2023/09/03 01:38:48;;;;;;;14.20;6.07;;;;;;;20.72;84.80;100475.50;5108229;28;20027;-30
2023/09/03 01:41:13;;;;;;;11.68;6.38;;;;;;;20.73;85.39;100479.81;5108062;28;20117;-29
2023/09/03 01:43:55;;;;;;;10.40;6.90;;;;;;;20.92;84.77;100460.22;5107810;28;20118;-30
2023/09/03 01:46:52;;;;;;;8.75;6.00;;;;;;;20.41;87.24;100472.84;5108009;28;20032;-31
2023/09/03 01:49:55;;;;;;;17.60;10.02;;;;;;;20.14;89.74;100475.03;5107898;28;20043;-31
2023/09/03 01:52:55;;;;;;;40.83;17.92;;;;;;;20.04;91.35;100465.03;5107939;28;20508;-30
2023/09/03 01:55:22;;;;;;;41.33;19.90;;;;;;;20.64;88.60;100481.47;5096755;28;20093;-29
2023/09/03 01:58:00;;;;;;;39.90;19.73;;;;;;;20.86;87.63;100484.66;5107663;28;20036;-29
2023/09/03 02:00:57;;;;;;;22.20;12.82;;;;;;;20.89;87.88;100485.19;5107722;28;20028;-31
2023/09/03 02:03:26;;;;;;;15.50;8.02;;;;;;;20.70;88.26;100485.81;5107114;28;20023;-29
2023/09/03 02:06:01;;;;;;;11.27;6.88;;;;;;;20.85;87.29;100477.59;5107395;28;20469;-30
2023/09/03 02:08:26;;;;;;;10.93;6.93;;;;;;;20.85;87.51;100472.19;5107377;28;20024;-29
2023/09/03 02:11:01;;;;;;;21.17;12.15;;;;;;;21.10;85.00;100483.19;5107447;28;20424;-31
2023/09/03 02:13:26;;;;;;;29.40;15.35;;;;;;;21.14;84.24;100474.22;5107588;28;20592;-30
2023/09/03 02:16:09;;;;;;;25.25;13.48;;;;;;;20.87;86.01;100486.25;5106900;28;20138;-29
2023/09/03 02:18:35;;;;;;;20.90;10.85;;;;;;;20.95;85.83;100481.38;5107063;28;20028;-29
2023/09/03 02:21:19;;;;;;;18.13;10.13;;;;;;;21.07;85.10;100479.94;5107269;28;20408;-31
2023/09/03 02:23:44;;;;;;;17.95;10.68;;;;;;;20.93;85.38;100475.41;5106898;28;20063;-30
2023/09/03 02:26:19;;;;;;;18.15;10.27;;;;;;;20.95;83.99;100459.69;5106746;28;20063;-31
2023/09/03 02:28:44;;;;;;;21.95;10.98;;;;;;;20.90;84.57;100475.94;5107059;27;20389;-30
2023/09/03 02:31:30;;;;;;;21.75;11.52;;;;;;;21.06;84.14;100491.06;5105573;28;20093;-30
2023/09/03 02:34:24;;;;;;;19.90;11.85;;;;;;;20.65;86.93;100478.47;5106687;28;20055;-30
2023/09/03 02:36:49;;;;;;;15.02;9.45;;;;;;;20.63;87.35;100477.13;5106944;28;20039;-30
2023/09/03 02:39:24;;;;;;;13.90;8.25;;;;;;;20.72;87.16;100485.50;5106694;28;20035;-30
2023/09/03 02:41:49;;;;;;;12.02;7.22;;;;;;;20.73;86.58;100487.94;5106653;28;20023;-30
2023/09/03 02:44:24;;;;;;;12.00;7.65;;;;;;;20.75;86.89;100488.47;5106778;28;20405;-30
2023/09/03 02:46:49;;;;;;;9.82;7.10;;;;;;;20.68;86.91;100471.72;5106575;28;20035;-30
2023/09/03 02:49:26;;;;;;;13.40;7.63;;;;;;;20.74;86.77;100481.44;5106596;28;20031;-30
2023/09/03 02:51:52;;;;;;;11.77;7.28;;;;;;;20.50;88.89;100480.41;5106265;28;20051;-32
2023/09/03 02:54:29;;;;;;;11.52;7.32;;;;;;;20.69;87.46;100483.34;5106531;28;20433;-31
2023/09/03 02:56:54;;;;;;;11.48;7.20;;;;;;;20.87;85.47;100480.03;5106241;28;20496;-30
2023/09/03 02:59:32;;;;;;;10.25;6.68;;;;;;;20.85;85.75;100487.63;5106365;28;20118;-30
2023/09/03 03:01:57;;;;;;;10.55;6.68;;;;;;;20.67;86.25;100492.56;5106268;28;20139;-31
2023/09/03 03:04:33;;;;;;;10.27;6.95;;;;;;;19.97;88.41;100489.69;5106125;28;20032;-30
2023/09/03 03:06:59;;;;;;;12.63;7.65;;;;;;;19.67;90.33;100477.72;5106389;28;20020;-30
2023/09/03 03:09:27;;;;;;;14.88;9.02;;;;;;;20.33;86.87;100492.38;5106319;28;20064;-30
2023/09/03 03:12:08;;;;;;;13.52;9.18;;;;;;;20.19;87.50;100485.88;5106210;28;20051;-29
2023/09/03 03:14:33;;;;;;;21.85;11.93;;;;;;;19.97;90.25;100500.50;5106772;28;20095;-31
2023/09/03 03:16:59;;;;;;;19.63;12.75;;;;;;;19.81;91.00;100496.16;5106456;28;20464;-30
2023/09/03 03:19:37;;;;;;;24.95;14.68;;;;;;;19.49;93.37;100489.06;5106365;27;20863;-31
2023/09/03 03:22:03;;;;;;;26.95;15.40;;;;;;;19.40;93.91;100482.56;5106453;28;20413;-30
2023/09/03 03:24:37;;;;;;;22.90;13.23;;;;;;;19.58;91.84;100482.03;5105700;28;20024;-30
2023/09/03 03:27:03;;;;;;;28.10;15.40;;;;;;;19.41;93.18;100476.06;5106346;28;20035;-29
2023/09/03 03:29:37;;;;;;;25.58;14.93;;;;;;;19.90;90.29;100480.19;5105891;28;20019;-30
2023/09/03 03:32:04;;;;;;;30.20;15.98;;;;;;;19.56;92.84;100472.59;5106159;28;20064;-29
2023/09/03 03:34:47;;;;;;;25.53;14.90;;;;;;;19.50;92.14;100470.94;5105651;28;20030;-32
2023/09/03 03:37:39;;;;;;;22.25;11.68;;;;;;;19.27;91.53;100482.00;5105559;28;20130;-31
2023/09/03 03:40:06;;;;;;;20.23;10.98;;;;;;;19.13;92.46;100482.75;5099107;28;20100;-29
2023/09/03 03:42:44;;;;;;;19.13;9.80;;;;;;;19.22;90.72;100479.25;5105544;28;20102;-31
2023/09/03 03:45:09;;;;;;;15.40;9.80;;;;;;;19.32;90.86;100483.88;5105634;28;20127;-29
2023/09/03 03:47:46;;;;;;;18.27;10.75;;;;;;;20.03;86.45;100488.59;5105677;28;20031;-30
2023/09/03 03:50:11;;;;;;;22.77;12.25;;;;;;;19.92;86.99;100488.84;5105572;28;20044;-30
2023/09/03 03:52:46;;;;;;;27.25;14.77;;;;;;;20.13;87.90;100481.56;5105870;28;20027;-32
2023/09/03 03:55:11;;;;;;;22.95;12.93;;;;;;;19.89;90.57;100486.69;5105653;28;20011;-30
2023/09/03 03:57:49;;;;;;;26.35;13.40;;;;;;;19.64;91.57;100480.97;5105418;28;20709;-30
2023/09/03 04:00:14;;;;;;;18.65;11.25;;;;;;;19.47;94.18;100483.09;5105429;28;20030;-29
2023/09/03 04:02:49;;;;;;;21.35;11.65;;;;;;;19.14;93.62;100479.78;5105457;28;20420;-29
2023/09/03 04:05:14;;;;;;;17.10;10.82;;;;;;;18.98;93.35;100468.13;5105714;28;20382;-32
2023/09/03 04:07:55;;;;;;;22.05;11.45;;;;;;;19.59;90.45;100480.16;5105214;28;20051;-29
2023/09/03 04:11:04;;;;;;;23.30;13.15;;;;;;;19.59;89.98;100478.25;5105605;28;20507;-32
2023/09/03 04:13:51;;;;;;;22.10;12.35;;;;;;;19.86;88.60;100485.34;5104790;28;20093;-30
2023/09/03 04:16:22;;;;;;;22.05;11.32;;;;;;;19.91;87.90;100485.34;5105581;28;20028;-30
2023/09/03 04:18:53;;;;;;;17.52;10.23;;;;;;;20.09;86.76;100486.69;5105281;28;20034;-29
2023/09/03 04:21:19;;;;;;;19.42;10.13;;;;;;;19.99;88.78;100490.22;5105290;28;20102;-30
2023/09/03 04:23:58;;;;;;;16.20;8.55;;;;;;;19.92;91.05;100486.16;5105414;28;20195;-30
2023/09/03 04:26:23;;;;;;;13.23;8.60;;;;;;;19.85;92.76;100486.44;5105607;28;20031;-30
2023/09/03 04:28:49;;;;;;;16.90;8.48;;;;;;;19.66;94.27;100478.81;5105495;28;20076;-29
2023/09/03 04:31:46;;;;;;;12.85;8.32;;;;;;;19.27;93.00;100490.09;5105229;28;20018;-30
2023/09/03 04:34:36;;;;;;;13.23;7.72;;;;;;;19.07;91.61;100485.44;5081598;28;20062;-29
2023/09/03 04:37:01;;;;;;;14.48;7.90;;;;;;;19.03;92.96;100488.94;5105432;28;20475;-30
2023/09/03 04:39:36;;;;;;;13.50;8.57;;;;;;;19.25;91.88;100484.16;5105019;28;20658;-29
2023/09/03 04:42:04;;;;;;;13.15;7.95;;;;;;;19.43;91.53;100477.44;5105344;28;20039;-30
2023/09/03 04:44:42;;;;;;;13.95;8.73;;;;;;;19.42;91.93;100477.69;5106578;28;20031;-30
2023/09/03 04:47:07;;;;;;;;;;;;;;;19.66;92.09;100475.28;5109504;28;20024;-30
2023/09/03 04:49:41;;;;;;;12.32;7.80;;;;;;;19.64;92.39;100462.03;5108844;28;19934;-32
2023/09/03 04:52:07;;;;;;;16.17;9.05;;;;;;;19.99;91.55;100473.16;5109297;28;20123;-33
2023/09/03 04:54:42;;;;;;;18.90;9.15;;;;;;;20.18;89.66;100473.41;5109037;28;20028;-31
2023/09/03 04:57:08;;;;;;;20.73;12.65;;;;;;;20.35;89.76;100468.53;5108803;28;20111;-33
2023/09/03 04:59:42;;;;;;;19.52;12.15;;;;;;;20.78;88.39;100474.38;5108849;28;20028;-30
2023/09/03 05:02:08;;;;;;;19.25;13.25;;;;;;;21.10;86.04;100462.28;5109045;28;20063;-33
2023/09/03 05:04:59;;;;;;;19.98;12.38;;;;;;;21.06;86.39;100455.81;5108843;28;20040;-31
2023/09/03 05:07:47;;;;;;;17.10;13.55;;;;;;;20.93;87.17;100451.00;5105492;28;20036;-31
2023/09/03 05:10:13;;;;;;;20.45;13.23;;;;;;;21.13;85.93;100459.03;5108695;28;20573;-32
2023/09/03 05:12:47;;;;;;;19.42;13.18;;;;;;;21.15;86.43;100454.16;5108633;28;20031;-32
2023/09/03 05:15:13;;;;;;;17.55;13.20;;;;;;;21.30;85.65;100460.56;5108557;28;20026;-31
2023/09/03 05:17:50;;;;;;;19.42;13.70;;;;;;;21.47;84.18;100450.16;5108204;28;20050;-30
2023/09/03 05:20:16;;;;;;;18.58;13.13;;;;;;;21.57;82.54;100460.94;5108575;28;20035;-30
2023/09/03 05:22:51;;;;;;;20.73;13.55;;;;;;;21.48;83.92;100457.22;5108534;28;20863;-32
2023/09/03 05:25:16;;;;;;;21.58;13.38;;;;;;;21.58;83.09;100457.16;5107774;28;20023;-32
2023/09/03 05:27:53;;;;;;;17.15;11.32;;;;;;;21.83;81.46;100463.47;5108362;28;20030;-30
2023/09/03 05:30:19;;;;;;;16.85;11.60;;;;;;;21.81;81.60;100465.66;5108351;28;20106;-29
2023/09/03 05:32:54;;;;;;;16.17;11.20;;;;;;;21.88;81.65;100474.28;5108235;28;20556;-29
2023/09/03 05:35:19;;;;;;;14.32;11.10;;;;;;;21.96;81.11;100467.44;5107871;28;20095;-29
2023/09/03 05:38:05;;;;;;;17.80;10.85;;;;;;;22.05;80.46;100471.16;5108156;28;20425;-30
2023/09/03 05:40:58;;;;;;;13.70;9.18;;;;;;;22.16;80.49;100455.56;5106241;28;20036;-29
2023/09/03 05:43:24;;;;;;;13.20;9.10;;;;;;;22.31;79.66;100462.78;5101689;28;20066;-28
2023/09/03 05:46:00;;;;;;;13.82;9.00;;;;;;;22.33;79.60;100463.31;5107190;28;20444;-32
2023/09/03 05:48:25;;;;;;;12.98;9.07;;;;;;;22.57;78.63;100463.31;5098537;28;20470;-33
2023/09/03 05:51:05;;;;;;;10.48;8.18;;;;;;;22.78;77.31;100467.44;5107267;28;20051;-31
2023/09/03 05:54:01;;;;;;;14.55;9.13;;;;;;;22.89;76.74;100462.66;5104164;28;20027;-32
2023/09/03 05:56:27;;;;;;;13.15;7.97;;;;;;;23.00;76.03;100455.97;5103174;28;20039;-35
2023/09/03 05:59:08;;;;;;;19.30;9.95;;;;;;;23.11;75.38;100451.25;5102105;28;20032;-31
2023/09/03 06:02:12;;;;;;;13.13;8.10;;;;;;;23.28;74.85;100467.06;5107202;28;20032;-31
2023/09/03 06:05:04;;;;;;;12.10;7.47;;;;;;;23.62;73.00;100477.72;5100958;28;20100;-33
2023/09/03 06:07:29;;;;;;;10.65;7.05;;;;;;;23.33;73.36;100460.72;5105977;28;20023;-32
2023/09/03 06:10:15;;;;;;;9.57;6.30;;;;;;;23.47;72.37;100462.41;5106940;28;20030;-33
2023/09/03 06:13:07;;;;;;;10.77;7.15;;;;;;;23.60;70.53;100466.31;5100528;28;20031;-32
2023/09/03 06:15:32;;;;;;;16.00;10.35;;;;;;;23.72;69.78;100467.75;5098078;28;20122;-32
2023/09/03 06:18:07;;;;;;;9.70;7.28;;;;;;;23.73;69.78;100466.66;5106652;28;20165;-33
2023/09/03 06:20:37;;;;;;;10.05;7.00;;;;;;;23.92;68.99;100475.63;5100130;28;20034;-28
2023/09/03 06:23:15;;;;;;;10.95;6.88;;;;;;;23.97;68.12;100477.47;5101101;28;20060;-33
2023/09/03 06:26:14;;;;;;;9.05;6.95;;;;;;;24.35;66.28;100480.84;5105010;28;20026;-31
2023/09/03 06:28:39;;;;;;;12.25;7.60;;;;;;;24.40;65.49;100477.25;5079638;28;20123;-30
2023/09/03 06:31:10;;;;;;;9.90;7.53;;;;;;;24.43;65.58;100471.16;5105319;28;20031;-31
2023/09/03 06:33:36;;;;;;;12.23;6.72;;;;;;;24.36;64.80;100476.22;5105176;28;20031;-33
2023/09/03 06:36:01;;;;;;;10.93;6.57;;;;;;;24.72;62.13;100483.72;5105742;28;20436;-30
2023/09/03 06:38:27;;;;;;;10.05;7.18;;;;;;;24.73;60.16;100497.06;5106552;28;20020;-30
2023/09/03 06:41:18;;;;;;;10.35;7.32;;;;;;;24.71;60.54;100499.28;5106509;28;20020;-33
2023/09/03 06:43:55;;;;;;;10.40;6.43;;;;;;;24.63;60.00;100497.28;5082956;28;20517;-30
2023/09/03 06:46:21;;;;;;;12.35;6.95;;;;;;;24.51;61.02;100495.03;5106124;28;20038;-31
2023/09/03 06:49:17;;;;;;;9.93;6.43;;;;;;;24.95;61.17;100492.81;5105852;28;20722;-31
2023/09/03 06:51:45;;;;;;;10.30;6.77;;;;;;;25.26;60.29;100499.25;5104706;28;20522;-31
2023/09/03 06:54:11;;;;;;;10.02;6.20;;;;;;;25.33;60.14;100500.75;5106736;28;20081;-34
2023/09/03 06:56:36;;;;;;;10.48;6.15;;;;;;;25.56;59.81;100496.94;5106958;28;20035;-30
2023/09/03 06:59:02;;;;;;;8.40;5.82;;;;;;;25.62;58.92;100495.72;5106288;28;20016;-32
2023/09/03 07:01:27;;;;;;;9.65;6.45;;;;;;;25.75;59.21;100490.50;5105931;28;20416;-32
2023/09/03 07:03:52;;;;;;;9.52;6.25;;;;;;;25.97;58.51;100490.53;5106057;28;20435;-31
2023/09/03 07:06:21;;;;;;;8.73;6.10;;;;;;;26.06;58.19;100496.84;5105597;28;20420;-31
2023/09/03 07:08:46;;;;;;;12.95;6.68;;;;;;;26.33;57.68;100495.03;5105138;28;20036;-30
2023/09/03 07:11:24;;;;;;;8.98;5.70;;;;;;;26.41;57.94;100483.34;5105838;28;20031;-31
2023/09/03 07:13:49;;;;;;;9.63;5.80;;;;;;;26.64;57.08;100486.84;5106028;28;20019;-32
2023/09/03 07:16:24;;;;;;;8.93;6.15;;;;;;;26.55;56.06;100483.25;5106436;28;20035;-30
2023/09/03 07:18:49;;;;;;;8.20;6.15;;;;;;;26.61;57.58;100481.19;5106227;28;20023;-32
2023/09/03 07:21:17;;;;;;;7.72;5.85;;;;;;;26.79;55.92;100485.59;5106102;27;20393;-32
2023/09/03 07:23:43;;;;;;;;;;;;;;;26.70;56.67;100479.28;5101283;28;20036;-31
2023/09/03 07:26:27;;;;;;;7.72;5.72;;;;;;;26.87;56.95;100478.53;5098538;28;19920;-31
2023/09/03 07:28:53;;;;;;;8.20;6.10;;;;;;;26.99;55.47;100480.63;5105616;28;20107;-31
2023/09/03 07:31:28;;;;;;;12.93;6.22;;;;;;;27.02;56.40;100480.00;5105454;28;20028;-31
2023/09/03 07:33:54;;;;;;;9.80;6.40;;;;;;;27.10;55.26;100481.97;5105916;28;20031;-30
2023/09/03 07:36:33;;;;;;;9.65;6.25;;;;;;;26.89;55.57;100475.47;5105346;28;20050;-33
2023/09/03 07:39:09;;;;;;;;;;;;;;;;;;;;;
2023/09/03 07:41:38;;;;;;;7.85;5.55;;;;;;;27.23;54.58;100483.75;5089836;28;20038;-31
2023/09/03 07:44:34;;;;;;;9.55;5.60;;;;;;;27.41;53.21;100484.59;5105214;28;20027;-33
2023/09/03 07:46:59;;;;;;;9.23;5.28;;;;;;;27.62;51.44;100476.53;5102802;28;20063;-34
2023/09/03 07:49:37;;;;;;;8.18;5.15;;;;;;;27.55;52.09;100476.22;5104948;28;20016;-32
2023/09/03 07:52:02;;;;;;;7.00;4.88;;;;;;;27.79;50.89;100480.38;5103099;28;20027;-32
2023/09/03 07:54:37;;;;;;;8.85;5.30;;;;;;;28.03;49.17;100479.84;5105386;28;20035;-32
2023/09/03 07:57:03;;;;;;;7.93;4.82;;;;;;;28.23;48.81;100473.66;5104531;28;20031;-32
2023/09/03 07:59:46;;;;;;;6.70;4.30;;;;;;;28.22;46.44;100482.25;5104667;28;20030;-33
2023/09/03 08:02:48;;;;;;;6.05;4.15;;;;;;;28.36;44.82;100479.25;5105561;28;20207;-33
2023/09/03 08:05:39;;;;;;;6.65;4.25;;;;;;;28.26;42.43;100494.16;5105680;28;20028;-32
2023/09/03 08:08:05;;;;;;;6.18;3.83;;;;;;;28.39;42.42;100482.16;5105013;28;20036;-32
2023/09/03 08:10:42;;;;;;;6.32;3.75;;;;;;;28.64;43.03;100487.88;5105434;28;20027;-34
2023/09/03 08:13:10;;;;;;;8.70;4.40;;;;;;;28.87;43.49;100476.63;5105963;28;20027;-32
2023/09/03 08:15:41;;;;;;;5.97;3.80;;;;;;;28.93;42.95;100467.06;5105648;28;20496;-34
2023/09/03 08:18:07;;;;;;;8.20;3.17;;;;;;;29.20;38.23;100485.00;5105573;28;20032;-32
2023/09/03 08:21:01;;;;;;;4.93;3.63;;;;;;;29.48;38.14;100479.75;5109300;28;20465;-32
2023/09/03 08:23:44;;;;;;;6.45;3.35;;;;;;;29.56;37.58;100484.38;5108580;28;20040;-32
2023/09/03 08:26:10;;;;;;;6.63;3.30;;;;;;;29.60;38.07;100474.31;5110138;27;20040;-32
2023/09/03 08:28:47;;;;;;;6.63;3.55;;;;;;;29.72;36.07;100483.78;5108974;28;20024;-31
2023/09/03 08:31:13;;;;;;;9.02;3.33;;;;;;;29.58;33.84;100493.06;5109335;28;20031;-35
2023/09/03 08:33:53;;;;;;;3.72;2.45;;;;;;;29.94;30.60;100488.91;5109494;28;20095;-31
2023/09/03 08:36:54;;;;;;;6.40;2.70;;;;;;;30.14;31.51;100481.72;5109524;28;20565;-30
2023/09/03 08:39:19;;;;;;;5.47;2.60;;;;;;;30.24;31.56;100480.50;5085610;28;20067;-30
2023/09/03 08:41:52;;;;;;;5.95;3.10;;;;;;;30.24;32.19;100486.00;5103396;28;20130;-32
2023/09/03 08:44:53;;;;;;;5.13;2.90;;;;;;;30.07;33.96;100475.97;5109174;28;20034;-30
2023/09/03 08:47:18;;;;;;;8.32;3.15;;;;;;;30.32;32.76;100476.84;5109090;28;20028;-30
2023/09/03 08:50:02;;;;;;;5.05;2.58;;;;;;;30.46;31.91;100462.75;5108844;27;20026;-30
2023/09/03 08:53:06;;;;;;;5.10;2.70;;;;;;;30.64;31.05;100463.31;5108872;28;20554;-33
2023/09/03 08:55:55;;;;;;;4.03;2.58;;;;;;;30.67;30.22;100459.88;5085313;28;20040;-30
2023/09/03 08:58:20;;;;;;;7.32;3.33;;;;;;;30.81;29.85;100452.06;5076344;28;20529;-31
2023/09/03 09:00:58;;;;;;;7.28;2.97;;;;;;;31.01;29.84;100436.53;5099904;28;20040;-33
2023/09/03 09:03:58;;;;;;;4.43;2.90;;;;;;;30.93;30.13;100450.47;5108778;28;20032;-31
2023/09/03 09:06:24;;;;;;;5.93;2.55;;;;;;;30.95;29.86;100428.88;5108445;28;20019;-32
2023/09/03 09:09:02;;;;;;;6.60;2.50;;;;;;;30.81;29.73;100432.78;5108976;28;20424;-33
2023/09/03 09:12:02;;;;;;;3.88;2.60;;;;;;;31.14;29.47;100429.06;5108698;28;20026;-30
2023/09/03 09:15:14;;;;;;;4.63;2.70;;;;;;;31.50;30.67;100441.13;5070058;28;20040;-30
2023/09/03 09:18:18;;;;;;;6.40;2.47;;;;;;;31.62;29.36;100438.28;5108757;28;20027;-31
2023/09/03 09:21:19;;;;;;;3.45;2.42;;;;;;;31.50;28.61;100435.59;5084740;28;20051;-32
2023/09/03 09:24:06;;;;;;;3.83;2.50;;;;;;;31.47;29.45;100427.22;5025257;28;20041;-31
2023/09/03 09:26:32;;;;;;;5.60;2.53;;;;;;;31.56;28.50;100423.16;5100930;28;20044;-32
2023/09/03 09:29:07;;;;;;;4.32;2.60;;;;;;;31.69;28.60;100415.66;5108655;28;20067;-31
2023/09/03 09:31:35;;;;;;;5.05;2.72;;;;;;;31.34;29.13;100415.44;5107171;28;20092;-30
2023/09/03 09:34:14;;;;;;;5.00;2.80;;;;;;;31.32;29.20;100414.97;5107943;28;20100;-33
2023/09/03 09:37:10;;;;;;;5.78;2.70;;;;;;;31.59;28.95;100408.69;5108288;28;20020;-31
2023/09/03 09:40:12;;;;;;;3.97;2.72;;;;;;;31.75;29.79;100399.63;5107881;28;20092;-32
2023/09/03 09:43:13;;;;;;;4.88;2.63;;;;;;;31.21;30.17;100392.66;5096274;28;20028;-33
2023/09/03 09:46:23;;;;;;;7.00;2.65;;;;;;;31.72;28.94;100401.16;5106112;28;20063;-33
2023/09/03 09:49:16;;;;;;;5.07;2.83;;;;;;;31.61;29.89;100400.88;5097523;27;20028;-31
2023/09/03 09:52:13;;;;;;;5.97;3.10;;;;;;;31.91;30.01;100394.91;5107642;28;20063;-32
2023/09/03 09:54:41;;;;;;;;;;;;;;;32.02;29.28;100387.75;5108825;28;20027;-32
2023/09/03 09:57:24;;;;;;;3.95;2.67;;;;;;;32.57;28.68;100381.53;5108163;28;19916;-30
2023/09/03 10:00:31;;;;;;;5.72;2.80;;;;;;;32.38;29.37;100372.03;5107697;28;20032;-30
2023/09/03 10:03:20;;;;;;;;;;;;;;;32.78;27.85;100376.50;5108217;28;20024;-31
2023/09/03 10:06:24;;;;;;;4.68;2.85;;;;;;;32.99;27.91;100361.53;5107561;28;19945;-30
2023/09/03 10:09:28;;;;;;;4.32;2.65;;;;;;;33.33;27.66;100367.34;5083988;28;20036;-30
2023/09/03 10:12:19;;;;;;;3.85;2.70;;;;;;;33.33;27.32;100373.69;5083790;28;20420;-31
2023/09/03 10:14:45;;;;;;;6.47;2.83;;;;;;;32.91;27.42;100368.06;5097525;28;20119;-30
2023/09/03 10:17:38;;;;;;;5.85;2.97;;;;;;;33.08;27.50;100367.69;5107386;28;20118;-31
2023/09/03 10:20:24;;;;;;;3.97;2.90;;;;;;;33.55;26.73;100374.88;5098419;27;20031;-32
2023/09/03 10:23:36;;;;;;;5.60;2.83;;;;;;;33.26;27.41;100364.44;5107415;28;20074;-31
2023/09/03 10:25:37;;;;;;;4.43;2.70;;;;;;;33.42;26.78;100354.09;5102767;28;20067;-29
2023/09/03 10:28:30;;;;;;;5.18;2.90;;;;;;;33.98;25.22;100353.50;5107087;28;20856;-30
2023/09/03 10:30:58;;;;;;;4.20;2.50;;;;;;;34.34;26.30;100342.97;5106184;28;20035;-31
2023/09/03 10:33:29;;;;;;;4.68;2.88;;;;;;;34.28;26.62;100338.94;5106986;28;20069;-32
2023/09/03 10:36:32;;;;;;;7.00;2.90;;;;;;;34.49;25.87;100344.00;5106743;28;20164;-30
2023/09/03 10:39:31;;;;;;;5.15;2.78;;;;;;;34.18;26.38;100334.03;5107112;28;20586;-30
2023/09/03 10:42:44;;;;;;;4.15;2.75;;;;;;;34.52;26.67;100325.81;5104422;28;20409;-31
2023/09/03 10:45:31;;;;;;;5.25;3.20;;;;;;;33.53;26.55;100308.09;5106995;28;20076;-31
2023/09/03 10:48:35;;;;;;;12.00;3.30;;;;;;;33.24;27.68;100331.63;5107081;28;20054;-34
2023/09/03 10:51:01;;;;;;;5.82;2.83;;;;;;;33.25;26.27;100321.41;5082562;28;20063;-31
2023/09/03 10:53:39;;;;;;;6.10;3.35;;;;;;;33.37;26.75;100310.97;5083219;28;20101;-30
2023/09/03 10:56:48;;;;;;;6.28;2.88;;;;;;;34.42;26.34;100313.44;5083199;28;20085;-31
2023/09/03 10:59:52;;;;;;;5.68;3.05;;;;;;;34.85;24.90;100300.13;5092018;28;20047;-31
2023/09/03 11:02:39;;;;;;;5.50;2.72;;;;;;;34.83;25.35;100296.16;5106550;28;20610;-31
2023/09/03 11:05:39;;;;;;;4.50;3.10;;;;;;;34.83;25.31;100296.94;5106299;28;20027;-30
2023/09/03 11:08:53;;;;;;;5.32;3.38;;;;;;;34.13;25.65;100303.91;5106355;28;20024;-30
2023/09/03 11:11:40;;;;;;;6.43;3.20;;;;;;;33.23;26.62;100294.91;5099463;28;20039;-32
2023/09/03 11:20:03;;;;;;;5.97;3.05;;;;;;;34.88;24.87;100284.72;5096476;28;20409;-32
2023/09/03 11:22:53;;;;;;;;;;;;;;;;;;;;;
2023/09/03 11:25:31;;;;;;;4.85;3.08;;;;;;;34.07;24.51;100263.88;5104687;27;20412;-30
2023/09/03 11:28:11;;;;;;;4.47;2.75;;;;;;;33.70;25.36;100265.31;5106265;28;20110;-30
2023/09/03 11:31:06;;;;;;;5.20;2.72;;;;;;;33.99;25.65;100268.53;5105866;28;20086;-30
2023/09/03 11:33:34;;;;;;;5.57;2.75;;;;;;;34.19;24.89;100255.38;5067426;28;20047;-31
2023/09/03 11:36:29;;;;;;;5.32;3.03;;;;;;;34.78;23.90;100256.53;5105645;28;20019;-31
2023/09/03 11:39:21;;;;;;;4.43;2.85;;;;;;;34.67;24.54;100255.59;5067262;28;20036;-35
2023/09/03 11:44:32;;;;;;;5.60;2.55;;;;;;;34.15;24.77;100246.25;5105776;28;20035;-31
2023/09/03 11:47:25;;;;;;;4.35;2.33;;;;;;;33.69;24.86;100235.28;5105482;28;20027;-31
2023/09/03 11:49:52;;;;;;;5.80;2.80;;;;;;;32.90;25.54;100237.47;5105619;28;20521;-32
2023/09/03 11:52:26;;;;;;;4.20;2.80;;;;;;;32.50;25.82;100238.63;5105588;28;20187;-29
2023/09/03 11:54:54;;;;;;;18.08;12.95;;;;;;;32.98;25.46;100239.19;5104788;28;20035;-34
2023/09/03 11:57:30;;;;;;;4.80;2.70;;;;;;;33.93;25.14;100234.84;5105415;28;20047;-32
2023/09/03 12:00:31;;;;;;;5.03;2.60;;;;;;;34.88;24.83;100221.00;5105804;28;20024;-32
2023/09/03 12:03:26;;;;;;;;;;;;;;;;;;;;;
2023/09/03 12:05:54;;;;;;;4.38;2.70;;;;;;;35.05;22.93;100222.38;5104216;28;20341;-30
2023/09/03 12:08:32;;;;;;;4.45;2.90;;;;;;;33.73;24.73;100219.53;5105632;28;20843;-29
2023/09/03 12:10:58;;;;;;;4.35;2.70;;;;;;;33.94;24.21;100206.00;5105472;28;20028;-30
2023/09/03 12:13:41;;;;;;;4.63;2.63;;;;;;;33.60;24.83;100211.41;5105692;28;20031;-30
2023/09/03 12:16:48;;;;;;;4.68;2.75;;;;;;;33.34;25.38;100201.13;5105529;28;20036;-30
2023/09/03 12:19:41;;;;;;;6.68;2.95;;;;;;;33.50;24.50;100202.97;5064854;28;20115;-30
2023/09/03 12:22:39;;;;;;;4.57;2.80;;;;;;;34.69;23.25;100202.59;5105535;28;20118;-31